createdAt,value
2022-07-31T00:00:31.763Z,23.59
2022-07-31T00:02:59.101Z,23.52
2022-07-31T00:05:28.666Z,23.57
2022-07-31T00:07:56.122Z,23.48
2022-07-31T00:10:23.510Z,23.37
2022-07-31T00:12:53.116Z,23.41
2022-07-31T00:15:20.357Z,23.46
2022-07-31T00:17:50.702Z,23.42
2022-07-31T00:20:19.221Z,23.42
2022-07-31T00:22:48.777Z,23.32
2022-07-31T00:25:19.774Z,23.38
2022-07-31T00:27:46.960Z,23.21
2022-07-31T00:30:14.588Z,23.39
2022-07-31T00:32:45.464Z,23.39
2022-07-31T00:35:14.764Z,23.27
2022-07-31T00:37:44.304Z,23.26
2022-07-31T00:40:14.270Z,23.32
2022-07-31T00:42:44.657Z,23.25
2022-07-31T00:45:14.371Z,23.03
2022-07-31T00:47:45.003Z,23.23
2022-07-31T00:50:13.308Z,23.19
2022-07-31T00:52:40.720Z,23.11
2022-07-31T00:55:11.321Z,22.92
2022-07-31T00:57:40.668Z,22.84
2022-07-31T01:00:11.008Z,22.84
2022-07-31T01:02:46.618Z,22.82
2022-07-31T01:05:14.060Z,22.97
2022-07-31T01:07:43.475Z,22.96
2022-07-31T01:10:22.874Z,22.96
2022-07-31T01:13:00.240Z,22.96
2022-07-31T01:15:28.847Z,22.95
2022-07-31T01:17:56.903Z,22.99
2022-07-31T01:20:25.550Z,22.97
2022-07-31T01:23:23.030Z,22.85
2022-07-31T01:26:34.964Z,22.85
2022-07-31T01:29:26.951Z,22.90
2022-07-31T01:32:08.997Z,22.81
2022-07-31T01:35:03.678Z,22.62
2022-07-31T01:37:40.829Z,22.62
2022-07-31T01:40:17.780Z,22.82
2022-07-31T01:43:01.791Z,22.79
2022-07-31T01:45:30.355Z,22.54
2022-07-31T01:47:59.004Z,22.37
2022-07-31T01:50:43.833Z,22.30
2022-07-31T01:53:16.416Z,22.43
2022-07-31T01:56:02.458Z,22.51
2022-07-31T01:58:37.547Z,22.49
2022-07-31T02:01:08.291Z,22.63
2022-07-31T02:03:44.530Z,22.62
2022-07-31T02:06:19.173Z,22.53
2022-07-31T02:08:51.682Z,22.59
2022-07-31T02:11:22.661Z,22.52
2022-07-31T02:13:53.466Z,22.38
2022-07-31T02:16:21.650Z,22.21
2022-07-31T02:18:51.533Z,22.22
2022-07-31T02:21:19.026Z,22.16
2022-07-31T02:23:46.270Z,22.38
2022-07-31T02:26:15.910Z,22.31
2022-07-31T02:28:45.088Z,22.30
2022-07-31T02:31:17.957Z,22.37
2022-07-31T02:33:51.420Z,22.24
2022-07-31T02:36:23.882Z,22.05
2022-07-31T02:38:57.651Z,21.95
2022-07-31T02:41:28.242Z,21.93
2022-07-31T02:43:56.200Z,21.91
2022-07-31T02:46:23.863Z,22.08
2022-07-31T02:48:54.018Z,22.03
2022-07-31T02:51:22.363Z,22.02
2022-07-31T02:53:49.706Z,22.01
2022-07-31T02:56:17.158Z,21.60
2022-07-31T02:58:46.811Z,21.56
2022-07-31T03:01:16.775Z,21.68
2022-07-31T03:03:50.286Z,21.47
2022-07-31T03:06:18.406Z,21.66
2022-07-31T03:08:45.477Z,21.53
2022-07-31T03:11:12.663Z,21.53
2022-07-31T03:13:43.771Z,21.52
2022-07-31T03:16:12.029Z,21.47
2022-07-31T03:18:41.315Z,21.40
2022-07-31T03:21:11.226Z,21.32
2022-07-31T03:23:41.800Z,21.33
2022-07-31T03:26:10.561Z,21.31
2022-07-31T03:28:37.808Z,21.28
2022-07-31T03:31:04.953Z,21.27
2022-07-31T03:33:31.991Z,21.36
2022-07-31T03:35:59.478Z,21.32
2022-07-31T03:38:41.510Z,21.42
2022-07-31T03:41:11.085Z,21.51
2022-07-31T03:43:47.516Z,21.42
2022-07-31T03:46:20.310Z,21.45
2022-07-31T03:48:48.113Z,21.29
2022-07-31T03:51:18.869Z,21.17
2022-07-31T03:53:46.986Z,21.28
2022-07-31T03:56:15.376Z,21.23
2022-07-31T03:58:42.705Z,21.31
2022-07-31T04:01:20.614Z,21.33
2022-07-31T04:03:47.878Z,21.30
2022-07-31T04:06:17.083Z,21.32
2022-07-31T04:08:52.008Z,21.38
2022-07-31T04:11:21.541Z,21.32
2022-07-31T04:13:50.866Z,21.15
2022-07-31T04:16:20.214Z,20.92
2022-07-31T04:18:47.813Z,20.76
2022-07-31T04:21:23.229Z,20.78
2022-07-31T04:23:50.653Z,20.80
2022-07-31T04:26:25.460Z,20.79
2022-07-31T04:28:56.149Z,20.82
2022-07-31T04:31:26.444Z,20.81
2022-07-31T04:33:56.875Z,20.96
2022-07-31T04:36:30.470Z,21.01
2022-07-31T04:39:01.936Z,21.10
2022-07-31T04:41:29.093Z,21.09
2022-07-31T04:43:59.855Z,21.24
2022-07-31T04:46:29.482Z,21.34
2022-07-31T04:48:56.774Z,21.20
2022-07-31T04:51:27.045Z,21.31
2022-07-31T04:53:57.274Z,21.35
2022-07-31T04:56:42.432Z,21.55
2022-07-31T04:59:16.398Z,21.40
2022-07-31T05:01:47.985Z,21.33
2022-07-31T05:04:16.067Z,21.36
2022-07-31T05:06:47.841Z,21.25
2022-07-31T05:09:23.636Z,21.01
2022-07-31T05:11:53.231Z,21.26
2022-07-31T05:14:23.896Z,21.28
2022-07-31T05:16:51.132Z,21.57
2022-07-31T05:19:18.553Z,21.61
2022-07-31T05:22:03.836Z,21.52
2022-07-31T05:24:33.618Z,21.52
2022-07-31T05:27:06.036Z,21.77
2022-07-31T05:29:33.884Z,21.79
2022-07-31T05:32:03.689Z,21.98
2022-07-31T05:34:31.191Z,21.95
2022-07-31T05:37:02.702Z,21.84
2022-07-31T05:39:30.743Z,21.78
2022-07-31T05:41:58.338Z,21.38
2022-07-31T05:44:25.409Z,21.72
2022-07-31T05:49:22.540Z,22.09
2022-07-31T05:51:54.297Z,22.40
2022-07-31T05:54:22.587Z,22.58
2022-07-31T05:56:49.676Z,22.50
2022-07-31T05:59:16.860Z,22.66
2022-07-31T06:01:44.125Z,22.42
2022-07-31T06:04:14.227Z,22.31
2022-07-31T06:06:43.617Z,22.12
2022-07-31T06:09:13.177Z,22.08
2022-07-31T06:11:40.346Z,22.43
2022-07-31T06:14:12.549Z,22.57
2022-07-31T06:16:42.503Z,22.38
2022-07-31T06:19:09.618Z,21.90
2022-07-31T06:21:36.647Z,22.08
2022-07-31T06:24:03.864Z,22.05
2022-07-31T06:26:31.495Z,22.27
2022-07-31T06:28:58.605Z,22.49
2022-07-31T06:31:30.492Z,22.86
2022-07-31T06:33:59.971Z,22.27
2022-07-31T06:36:29.489Z,22.13
2022-07-31T06:38:56.676Z,22.33
2022-07-31T06:41:42.573Z,22.49
2022-07-31T06:44:11.743Z,22.35
2022-07-31T06:46:39.489Z,22.53
2022-07-31T06:49:17.284Z,22.71
2022-07-31T06:51:45.249Z,22.81
2022-07-31T06:54:12.610Z,22.81
2022-07-31T06:56:39.972Z,22.92
2022-07-31T06:59:08.356Z,23.04
2022-07-31T07:01:38.972Z,22.24
2022-07-31T07:04:06.105Z,22.21
2022-07-31T07:06:35.792Z,22.09
2022-07-31T07:09:02.764Z,22.38
2022-07-31T07:11:29.889Z,22.66
2022-07-31T07:13:57.183Z,22.55
2022-07-31T07:16:30.136Z,22.53
2022-07-31T07:18:59.636Z,22.96
2022-07-31T07:21:27.147Z,23.36
2022-07-31T07:23:54.128Z,23.44
2022-07-31T07:26:21.407Z,23.58
2022-07-31T07:28:53.256Z,23.63
2022-07-31T07:31:20.238Z,23.87
2022-07-31T07:33:47.833Z,23.91
2022-07-31T07:36:23.342Z,23.43
2022-07-31T07:38:56.005Z,23.23
2022-07-31T07:41:29.122Z,23.69
2022-07-31T07:43:58.247Z,24.04
2022-07-31T07:46:27.718Z,24.35
2022-07-31T07:49:00.117Z,24.44
2022-07-31T07:51:27.284Z,24.24
2022-07-31T07:53:54.411Z,23.91
2022-07-31T07:56:21.591Z,24.19
2022-07-31T07:58:49.229Z,24.84
2022-07-31T08:01:16.804Z,25.07
2022-07-31T08:03:51.236Z,25.36
2022-07-31T08:06:25.834Z,24.86
2022-07-31T08:08:54.982Z,24.71
2022-07-31T08:11:27.847Z,25.32
2022-07-31T08:13:57.438Z,25.87
2022-07-31T08:16:24.471Z,26.17
2022-07-31T08:18:53.055Z,26.21
2022-07-31T08:21:22.302Z,26.62
2022-07-31T08:23:49.367Z,26.85
2022-07-31T08:26:27.309Z,26.96
2022-07-31T08:28:55.868Z,26.65
2022-07-31T08:31:23.111Z,27.09
2022-07-31T08:33:50.106Z,27.22
2022-07-31T08:36:17.183Z,26.64
2022-07-31T08:38:44.239Z,26.25
2022-07-31T08:41:15.121Z,26.50
2022-07-31T08:44:01.725Z,26.13
2022-07-31T08:46:42.554Z,27.00
2022-07-31T08:49:16.149Z,26.99
2022-07-31T08:51:50.902Z,27.57
2022-07-31T08:54:23.025Z,28.29
2022-07-31T08:56:52.930Z,27.70
2022-07-31T08:59:22.192Z,27.32
2022-07-31T09:01:49.367Z,28.42
2022-07-31T09:04:17.454Z,28.86
2022-07-31T09:06:45.312Z,29.20
2022-07-31T09:09:15.242Z,28.85
2022-07-31T09:11:55.363Z,29.05
2022-07-31T09:14:32.327Z,28.27
2022-07-31T09:16:59.519Z,27.40
2022-07-31T09:19:52.307Z,28.51
2022-07-31T09:22:29.501Z,29.31
2022-07-31T09:25:19.345Z,29.20
2022-07-31T09:28:00.604Z,29.25
2022-07-31T09:30:27.876Z,30.13
2022-07-31T09:32:54.954Z,30.56
2022-07-31T09:35:22.175Z,29.83
2022-07-31T09:37:49.505Z,29.63
2022-07-31T09:40:21.465Z,29.97
2022-07-31T09:42:55.293Z,30.74
2022-07-31T09:45:27.673Z,30.69
2022-07-31T09:48:12.431Z,30.69
2022-07-31T09:50:54.791Z,29.94
2022-07-31T09:53:22.149Z,30.22
2022-07-31T09:56:00.416Z,30.51
2022-07-31T09:58:27.607Z,30.90
2022-07-31T10:00:56.646Z,30.81
2022-07-31T10:03:26.293Z,31.68
2022-07-31T10:05:59.459Z,31.92
2022-07-31T10:08:36.398Z,30.95
2022-07-31T10:11:06.077Z,30.54
2022-07-31T10:13:46.996Z,30.76
2022-07-31T10:16:17.326Z,30.74
2022-07-31T10:18:53.169Z,31.47
2022-07-31T10:21:32.257Z,31.76
2022-07-31T10:24:00.818Z,32.52
2022-07-31T10:26:57.389Z,32.81
2022-07-31T10:29:20.133Z,32.35
2022-07-31T10:31:47.491Z,32.25
2022-07-31T10:34:16.248Z,33.13
2022-07-31T10:36:49.508Z,33.62
2022-07-31T10:39:31.314Z,33.37
2022-07-31T10:42:43.219Z,33.73
2022-07-31T10:45:15.190Z,33.54
2022-07-31T10:48:01.763Z,32.83
2022-07-31T10:50:31.901Z,33.25
2022-07-31T10:53:15.661Z,34.02
2022-07-31T10:55:45.908Z,34.62
2022-07-31T10:58:21.910Z,34.40
2022-07-31T11:00:53.840Z,34.48
2022-07-31T11:03:23.101Z,35.19
2022-07-31T11:06:01.004Z,35.39
2022-07-31T11:08:42.804Z,34.68
2022-07-31T11:11:11.081Z,33.59
2022-07-31T11:13:55.419Z,33.19
2022-07-31T11:16:22.707Z,34.24
2022-07-31T11:19:09.592Z,34.58
2022-07-31T11:21:43.018Z,34.26
2022-07-31T11:24:23.325Z,34.17
2022-07-31T11:26:58.227Z,34.69
2022-07-31T11:29:59.798Z,35.04
2022-07-31T11:32:25.638Z,34.94
2022-07-31T11:34:57.414Z,35.42
2022-07-31T11:37:46.045Z,35.06
2022-07-31T11:40:22.305Z,35.01
2022-07-31T11:43:24.244Z,35.30
2022-07-31T11:45:51.306Z,35.48
2022-07-31T11:48:24.575Z,34.87
2022-07-31T11:50:54.749Z,34.58
2022-07-31T11:53:22.099Z,34.26
2022-07-31T11:55:59.008Z,35.03
2022-07-31T11:58:28.750Z,35.28
2022-07-31T12:01:04.504Z,34.33
2022-07-31T12:03:37.036Z,34.50
2022-07-31T12:06:06.697Z,33.90
2022-07-31T12:08:42.236Z,33.82
2022-07-31T12:11:11.426Z,34.55
2022-07-31T12:13:40.048Z,35.64
2022-07-31T12:16:09.838Z,34.51
2022-07-31T12:19:01.749Z,34.84
2022-07-31T12:21:37.912Z,34.75
2022-07-31T12:24:13.117Z,34.92
2022-07-31T12:26:51.065Z,34.86
2022-07-31T12:29:32.776Z,35.32
2022-07-31T12:32:00.486Z,34.67
2022-07-31T12:34:38.565Z,34.73
2022-07-31T12:37:06.983Z,34.73
2022-07-31T12:39:59.682Z,34.96
2022-07-31T12:42:40.687Z,33.62
2022-07-31T12:45:18.145Z,32.02
2022-07-31T12:47:52.195Z,32.22
2022-07-31T12:50:24.289Z,31.82
2022-07-31T12:52:51.487Z,32.06
2022-07-31T12:55:22.470Z,32.15
2022-07-31T12:57:52.456Z,31.96
2022-07-31T13:00:27.553Z,32.26
2022-07-31T13:02:56.835Z,31.48
2022-07-31T13:05:25.398Z,31.63
2022-07-31T13:07:57.362Z,32.14
2022-07-31T13:10:29.265Z,32.46
2022-07-31T13:13:04.591Z,32.11
2022-07-31T13:15:31.713Z,32.49
2022-07-31T13:18:04.927Z,33.03
2022-07-31T13:20:32.654Z,33.20
2022-07-31T13:23:02.832Z,32.74
2022-07-31T13:25:32.826Z,33.07
2022-07-31T13:28:00.547Z,32.82
2022-07-31T13:30:30.533Z,32.81
2022-07-31T13:32:57.572Z,32.51
2022-07-31T13:35:28.522Z,32.77
2022-07-31T13:37:57.201Z,32.51
2022-07-31T13:40:44.534Z,32.03
2022-07-31T13:43:12.394Z,31.97
2022-07-31T13:45:41.800Z,31.86
2022-07-31T13:48:10.199Z,31.94
2022-07-31T13:50:39.960Z,31.89
2022-07-31T13:53:09.516Z,31.52
2022-07-31T13:55:37.660Z,31.07
2022-07-31T13:58:05.194Z,30.98
2022-07-31T14:00:34.888Z,30.90
2022-07-31T14:03:01.931Z,30.85
2022-07-31T14:05:29.087Z,31.16
2022-07-31T14:08:03.234Z,31.03
2022-07-31T14:10:52.070Z,30.72
2022-07-31T14:13:22.435Z,30.86
2022-07-31T14:15:49.713Z,30.92
2022-07-31T14:18:18.979Z,31.09
2022-07-31T14:20:46.640Z,31.08
2022-07-31T14:23:16.163Z,31.23
2022-07-31T14:25:43.296Z,31.38
2022-07-31T14:28:13.025Z,31.36
2022-07-31T14:30:45.998Z,31.43
2022-07-31T14:33:14.308Z,31.47
2022-07-31T14:35:43.878Z,31.49
2022-07-31T14:38:10.929Z,31.09
2022-07-31T14:40:38.147Z,30.35
2022-07-31T14:43:05.183Z,30.72
2022-07-31T14:45:51.397Z,30.53
2022-07-31T14:48:22.062Z,30.42
2022-07-31T14:50:52.054Z,30.11
2022-07-31T14:53:19.021Z,29.58
2022-07-31T14:55:48.179Z,29.23
2022-07-31T14:58:21.372Z,29.02
2022-07-31T15:00:48.402Z,29.30
2022-07-31T15:03:18.201Z,28.36
2022-07-31T15:06:39.953Z,28.10
2022-07-31T15:08:38.583Z,27.88
2022-07-31T15:11:05.603Z,28.02
2022-07-31T15:13:36.056Z,28.20
2022-07-31T15:16:06.028Z,28.28
2022-07-31T15:18:35.297Z,28.08
2022-07-31T15:21:04.885Z,28.06
2022-07-31T15:23:37.305Z,28.06
2022-07-31T15:26:06.993Z,28.30
2022-07-31T15:28:34.573Z,28.21
2022-07-31T15:31:07.713Z,28.19
2022-07-31T15:33:34.870Z,28.23
2022-07-31T15:36:04.408Z,28.19
2022-07-31T15:38:33.813Z,28.08
2022-07-31T15:41:00.865Z,28.04
2022-07-31T15:43:32.127Z,27.99
2022-07-31T15:46:08.692Z,28.11
2022-07-31T15:48:37.377Z,28.15
2022-07-31T15:51:09.388Z,28.12
2022-07-31T15:53:39.018Z,28.10
2022-07-31T15:56:06.814Z,27.92
2022-07-31T15:58:34.035Z,28.03
2022-07-31T16:01:01.205Z,27.87
2022-07-31T16:03:50.840Z,27.95
2022-07-31T16:06:20.401Z,28.04
2022-07-31T16:08:59.871Z,28.07
2022-07-31T16:12:04.662Z,27.94
2022-07-31T16:14:13.921Z,28.05
2022-07-31T16:16:45.515Z,27.81
2022-07-31T16:19:13.068Z,27.67
2022-07-31T16:21:42.458Z,27.70
2022-07-31T16:24:09.485Z,27.67
2022-07-31T16:26:40.045Z,27.42
2022-07-31T16:29:07.760Z,27.34
2022-07-31T16:31:46.833Z,27.27
2022-07-31T16:34:13.849Z,27.32
2022-07-31T16:36:44.236Z,27.35
2022-07-31T16:39:20.481Z,27.39
2022-07-31T16:41:54.421Z,27.41
2022-07-31T16:44:22.466Z,27.21
2022-07-31T16:46:54.500Z,27.22
2022-07-31T16:49:28.367Z,27.11
2022-07-31T16:52:06.782Z,27.01
2022-07-31T16:54:34.242Z,26.75
2022-07-31T16:57:03.589Z,26.46
2022-07-31T16:59:30.910Z,26.23
2022-07-31T17:02:01.116Z,26.19
2022-07-31T17:04:29.002Z,26.11
2022-07-31T17:06:58.966Z,25.99
2022-07-31T17:09:26.266Z,25.92
2022-07-31T17:11:56.539Z,25.83
2022-07-31T17:14:26.589Z,25.59
2022-07-31T17:16:55.378Z,25.68
2022-07-31T17:19:41.650Z,25.63
2022-07-31T17:22:17.756Z,25.54
2022-07-31T17:24:50.891Z,25.52
2022-07-31T17:27:19.617Z,25.47
2022-07-31T17:29:46.747Z,25.47
2022-07-31T17:32:13.892Z,25.49
2022-07-31T17:34:45.050Z,25.23
2022-07-31T17:37:14.375Z,25.17
2022-07-31T17:39:41.488Z,25.10
2022-07-31T17:42:09.542Z,25.18
2022-07-31T17:44:39.856Z,25.13
2022-07-31T17:47:10.506Z,25.26
2022-07-31T17:49:40.255Z,25.14
2022-07-31T17:52:09.979Z,24.97
2022-07-31T17:54:39.354Z,25.04
2022-07-31T17:57:07.157Z,24.82
2022-07-31T17:59:37.238Z,24.56
2022-07-31T18:02:04.961Z,24.45
2022-07-31T18:04:38.750Z,24.61
2022-07-31T18:07:11.360Z,24.41
2022-07-31T18:09:44.418Z,24.68
2022-07-31T18:12:15.707Z,24.61
2022-07-31T18:14:43.310Z,24.68
2022-07-31T18:17:10.547Z,24.59
2022-07-31T18:19:37.897Z,24.55
2022-07-31T18:22:05.076Z,24.54
2022-07-31T18:24:32.642Z,24.55
2022-07-31T18:26:59.816Z,24.63
2022-07-31T18:29:31.726Z,24.63
2022-07-31T18:32:02.287Z,24.49
2022-07-31T18:34:31.996Z,24.33
2022-07-31T18:37:06.550Z,24.43
2022-07-31T18:39:49.017Z,24.52
2022-07-31T18:42:19.729Z,24.34
2022-07-31T18:44:46.941Z,24.34
2022-07-31T18:47:14.100Z,24.29
2022-07-31T18:51:01.845Z,24.27
2022-07-31T18:52:32.614Z,24.17
2022-07-31T18:55:02.166Z,24.25
2022-07-31T18:57:34.743Z,24.27
2022-07-31T19:00:02.356Z,24.32
2022-07-31T19:02:31.717Z,24.28
2022-07-31T19:05:02.248Z,24.17
2022-07-31T19:07:30.272Z,24.08
2022-07-31T19:10:06.000Z,23.68
2022-07-31T19:12:36.254Z,23.88
2022-07-31T19:15:04.637Z,23.77
2022-07-31T19:17:44.701Z,23.90
2022-07-31T19:20:12.648Z,23.06
2022-07-31T19:23:02.191Z,23.04
2022-07-31T19:25:53.872Z,22.60
2022-07-31T19:28:26.683Z,22.75
2022-07-31T19:30:57.176Z,22.53
2022-07-31T19:33:26.933Z,22.38
2022-07-31T19:36:01.758Z,22.13
2022-07-31T19:38:31.723Z,22.22
2022-07-31T19:41:00.154Z,21.84
2022-07-31T19:43:27.725Z,21.81
2022-07-31T19:46:00.634Z,21.47
2022-07-31T19:48:45.371Z,21.25
2022-07-31T19:51:14.274Z,21.29
2022-07-31T19:53:42.298Z,21.43
2022-07-31T19:56:10.966Z,21.50
2022-07-31T19:58:42.577Z,21.67
2022-07-31T20:01:13.110Z,21.45
2022-07-31T20:03:40.365Z,21.24
2022-07-31T20:06:08.059Z,21.17
2022-07-31T20:08:39.865Z,21.41
2022-07-31T20:11:10.666Z,21.60
2022-07-31T20:13:40.124Z,21.55
2022-07-31T20:16:07.426Z,21.14
2022-07-31T20:18:36.677Z,21.05
2022-07-31T20:21:11.751Z,20.84
2022-07-31T20:23:48.918Z,20.82
2022-07-31T20:26:21.737Z,20.70
2022-07-31T20:28:48.647Z,20.67
2022-07-31T20:31:21.420Z,20.82
2022-07-31T20:33:56.940Z,20.54
2022-07-31T20:36:24.152Z,20.71
2022-07-31T20:38:51.319Z,20.82
2022-07-31T20:41:18.307Z,20.80
2022-07-31T20:43:45.310Z,20.86
2022-07-31T20:46:12.296Z,21.10
2022-07-31T20:48:41.742Z,20.84
2022-07-31T20:51:15.933Z,20.60
2022-07-31T20:53:44.153Z,20.54
2022-07-31T20:56:12.345Z,20.33
2022-07-31T20:58:41.752Z,20.41
2022-07-31T21:01:11.833Z,20.46
2022-07-31T21:03:38.946Z,20.42
2022-07-31T21:06:08.085Z,20.29
2022-07-31T21:08:35.099Z,20.48
2022-07-31T21:11:06.075Z,20.50
2022-07-31T21:13:36.296Z,20.49
2022-07-31T21:16:05.906Z,20.23
2022-07-31T21:18:34.687Z,20.25
2022-07-31T21:21:02.575Z,20.40
2022-07-31T21:23:29.523Z,20.45
2022-07-31T21:28:27.400Z,20.38
2022-07-31T21:30:56.026Z,20.32
2022-07-31T21:33:25.862Z,20.47
2022-07-31T21:35:55.749Z,20.62
2022-07-31T21:38:23.395Z,20.46
2022-07-31T21:40:50.761Z,20.65
2022-07-31T21:43:22.962Z,20.73
2022-07-31T21:45:57.769Z,20.97
2022-07-31T21:48:32.826Z,20.93
2022-07-31T21:51:02.619Z,21.14
2022-07-31T21:53:32.007Z,21.07
2022-07-31T21:56:02.931Z,21.15
2022-07-31T21:58:29.909Z,21.13
2022-07-31T22:00:59.192Z,21.07
2022-07-31T22:03:26.047Z,21.22
2022-07-31T22:06:14.026Z,21.21
2022-07-31T22:08:40.949Z,21.20
2022-07-31T22:11:07.906Z,21.42
2022-07-31T22:13:34.912Z,21.25
2022-07-31T22:16:01.986Z,21.31
2022-07-31T22:18:32.028Z,20.93
2022-07-31T22:21:06.626Z,21.09
2022-07-31T22:23:38.548Z,21.19
2022-07-31T22:26:06.012Z,21.36
2022-07-31T22:28:33.211Z,21.34
2022-07-31T22:31:00.358Z,21.12
2022-07-31T22:33:27.334Z,21.15
2022-07-31T22:35:59.039Z,21.27
2022-07-31T22:38:29.435Z,21.43
2022-07-31T22:40:57.610Z,21.44
2022-07-31T22:44:13.388Z,21.34
2022-07-31T22:46:15.438Z,21.48
2022-07-31T22:48:45.024Z,21.31
2022-07-31T22:51:14.305Z,21.27
2022-07-31T22:53:50.203Z,21.29
2022-07-31T22:56:20.133Z,21.42
2022-07-31T22:58:49.209Z,21.26
2022-07-31T23:01:16.050Z,21.13
2022-07-31T23:03:45.535Z,21.41
2022-07-31T23:06:31.206Z,21.17
2022-07-31T23:09:00.000Z,21.22
2022-07-31T23:11:27.652Z,21.38
2022-07-31T23:13:56.820Z,21.25
2022-07-31T23:16:26.492Z,20.95
2022-07-31T23:18:55.705Z,21.12
2022-07-31T23:21:27.252Z,21.42
2022-07-31T23:23:54.458Z,21.61
2022-07-31T23:26:24.290Z,21.62
2022-07-31T23:28:54.681Z,21.50
2022-07-31T23:31:22.575Z,21.40
2022-07-31T23:33:50.151Z,21.48
2022-07-31T23:36:17.796Z,21.53
2022-07-31T23:38:49.451Z,21.63
2022-07-31T23:41:36.345Z,21.79
2022-07-31T23:44:03.316Z,21.78
2022-07-31T23:46:38.604Z,21.68
2022-07-31T23:49:11.790Z,21.64
2022-07-31T23:51:41.178Z,21.93
2022-07-31T23:54:08.564Z,21.53
2022-07-31T23:56:35.507Z,21.54
2022-07-31T23:59:06.836Z,21.68
